createdAt,value
2023-12-17T00:00:48.549Z,102192.30
2023-12-17T00:06:13.499Z,102171.86
2023-12-17T00:11:36.763Z,102175.33
2023-12-17T00:16:59.615Z,102179.00
2023-12-17T00:22:22.112Z,102188.81
2023-12-17T00:27:44.480Z,102175.52
2023-12-17T00:33:06.941Z,102195.09
2023-12-17T00:38:29.475Z,102187.08
2023-12-17T00:43:51.927Z,102197.76
2023-12-17T00:49:14.452Z,102156.02
2023-12-17T00:54:36.875Z,102163.97
2023-12-17T00:59:59.368Z,102166.58
2023-12-17T01:05:21.909Z,102155.89
2023-12-17T01:10:44.535Z,102150.42
2023-12-17T01:16:07.078Z,102178.94
2023-12-17T01:21:29.534Z,102150.27
2023-12-17T01:26:52.322Z,102124.37
2023-12-17T01:32:14.723Z,102123.44
2023-12-17T01:37:37.264Z,102110.73
2023-12-17T01:42:59.953Z,102099.05
2023-12-17T01:48:22.899Z,102115.78
2023-12-17T01:53:46.967Z,102133.43
2023-12-17T01:59:09.770Z,102117.20
2023-12-17T02:04:34.183Z,102136.62
2023-12-17T02:09:56.962Z,102101.75
2023-12-17T02:15:20.237Z,102115.02
2023-12-17T02:20:42.844Z,102096.23
2023-12-17T02:26:05.641Z,102125.58
2023-12-17T02:31:28.105Z,102141.61
2023-12-17T02:36:50.460Z,102110.47
2023-12-17T02:42:12.927Z,102111.27
2023-12-17T02:47:35.437Z,102124.51
2023-12-17T02:52:57.765Z,102144.95
2023-12-17T02:58:20.157Z,102140.39
2023-12-17T03:03:42.653Z,102169.59
2023-12-17T03:09:05.098Z,102159.61
2023-12-17T03:14:27.649Z,102138.95
2023-12-17T03:19:50.670Z,102151.45
2023-12-17T03:25:13.079Z,102183.48
2023-12-17T03:30:36.192Z,102167.37
2023-12-17T03:35:58.901Z,102159.41
2023-12-17T03:41:29.463Z,102166.56
2023-12-17T03:46:51.780Z,102158.44
2023-12-17T03:52:15.513Z,102161.11
2023-12-17T03:57:38.184Z,102194.75
2023-12-17T04:03:01.332Z,102180.38
2023-12-17T04:08:24.011Z,102162.48
2023-12-17T04:13:46.533Z,102150.79
2023-12-17T04:19:09.671Z,102141.77
2023-12-17T04:24:32.318Z,102156.00
2023-12-17T04:29:55.634Z,102132.80
2023-12-17T04:35:18.462Z,102130.92
2023-12-17T04:40:40.910Z,102133.36
2023-12-17T04:46:04.582Z,102148.41
2023-12-17T04:51:27.351Z,102147.30
2023-12-17T04:56:50.482Z,102146.99
2023-12-17T05:02:12.867Z,102138.03
2023-12-17T05:07:35.226Z,102131.59
2023-12-17T05:12:57.603Z,102129.55
2023-12-17T05:18:20.816Z,102122.38
2023-12-17T05:23:43.249Z,102107.13
2023-12-17T05:29:05.593Z,102129.23
2023-12-17T05:34:29.012Z,102120.91
2023-12-17T05:39:51.577Z,102137.66
2023-12-17T05:45:14.757Z,102115.09
2023-12-17T05:50:37.198Z,102130.25
2023-12-17T05:55:59.598Z,102158.69
2023-12-17T06:01:22.023Z,102157.67
2023-12-17T06:06:44.684Z,102149.50
2023-12-17T06:12:07.217Z,102112.70
2023-12-17T06:17:30.681Z,102157.28
2023-12-17T06:22:54.200Z,102140.27
2023-12-17T06:28:16.657Z,102163.43
2023-12-17T06:33:39.144Z,102181.23
2023-12-17T06:39:01.860Z,102161.63
2023-12-17T06:44:24.586Z,102163.43
2023-12-17T06:49:48.612Z,102165.38
2023-12-17T06:55:12.088Z,102173.56
2023-12-17T07:00:36.482Z,102177.97
2023-12-17T07:06:00.261Z,102174.54
2023-12-17T07:11:24.616Z,102196.90
2023-12-17T07:16:48.437Z,102209.42
2023-12-17T07:22:10.825Z,102173.59
2023-12-17T07:27:33.135Z,102210.28
2023-12-17T07:32:55.625Z,102193.42
2023-12-17T07:38:18.339Z,102202.47
2023-12-17T07:43:40.713Z,102199.72
2023-12-17T07:49:03.259Z,102195.38
2023-12-17T07:54:25.758Z,102187.27
2023-12-17T07:59:49.106Z,102178.44
2023-12-17T08:05:12.014Z,102190.92
2023-12-17T08:10:34.568Z,102178.47
2023-12-17T08:15:57.429Z,102205.25
2023-12-17T08:21:19.971Z,102221.06
2023-12-17T08:26:42.801Z,102226.25
2023-12-17T08:32:05.350Z,102220.92
2023-12-17T08:37:27.908Z,102219.02
2023-12-17T08:42:51.285Z,102223.36
2023-12-17T08:48:14.723Z,102225.09
2023-12-17T08:53:37.621Z,102205.34
2023-12-17T08:59:02.059Z,102205.30
2023-12-17T09:04:24.876Z,102215.08
2023-12-17T09:09:47.523Z,102230.06
2023-12-17T09:15:10.926Z,102222.83
2023-12-17T09:20:34.310Z,102207.62
2023-12-17T09:25:58.745Z,102214.72
2023-12-17T09:31:21.768Z,102223.52
2023-12-17T09:36:44.502Z,102195.56
2023-12-17T09:42:08.135Z,102198.06
2023-12-17T09:47:30.883Z,102172.86
2023-12-17T09:52:56.017Z,102182.64
2023-12-17T09:58:21.001Z,102187.05
2023-12-17T10:03:44.689Z,102185.13
2023-12-17T10:09:09.925Z,102172.34
2023-12-17T10:14:42.782Z,102169.47
2023-12-17T10:20:12.870Z,102182.87
2023-12-17T10:25:31.261Z,102190.84
2023-12-17T10:30:54.886Z,102179.92
2023-12-17T10:36:18.715Z,102197.81
2023-12-17T10:41:42.371Z,102243.31
2023-12-17T10:47:07.937Z,102219.98
2023-12-17T10:52:30.626Z,102235.98
2023-12-17T10:58:06.566Z,102215.22
2023-12-17T11:03:30.846Z,102220.52
2023-12-17T11:08:53.518Z,102195.36
2023-12-17T11:14:17.886Z,102203.33
2023-12-17T11:19:40.405Z,102186.30
2023-12-17T11:25:05.564Z,102188.11
2023-12-17T11:30:47.383Z,102190.00
2023-12-17T11:36:11.976Z,102156.96
2023-12-17T11:41:34.346Z,102159.56
2023-12-17T11:46:58.867Z,102142.61
2023-12-17T11:52:24.616Z,102130.95
2023-12-17T11:57:47.398Z,102124.64
2023-12-17T12:03:12.320Z,102113.91
2023-12-17T12:08:37.422Z,102102.41
2023-12-17T12:14:04.166Z,102118.41
2023-12-17T12:19:29.788Z,102104.93
2023-12-17T12:24:50.726Z,102134.42
2023-12-17T12:30:17.028Z,102146.09
2023-12-17T12:35:41.127Z,102160.44
2023-12-17T12:41:05.464Z,102145.30
2023-12-17T12:46:28.111Z,102157.76
2023-12-17T12:51:51.202Z,102152.27
2023-12-17T12:57:14.277Z,102137.97
2023-12-17T13:02:38.222Z,102135.24
2023-12-17T13:08:00.861Z,102136.11
2023-12-17T13:13:23.572Z,102128.86
2023-12-17T13:18:52.685Z,102129.65
2023-12-17T13:24:11.370Z,102093.05
2023-12-17T13:29:38.810Z,102100.16
2023-12-17T13:35:01.971Z,102093.92
2023-12-17T13:40:25.785Z,102114.51
2023-12-17T13:46:00.176Z,102109.94
2023-12-17T13:51:23.163Z,102111.67
2023-12-17T13:56:46.801Z,102081.23
2023-12-17T14:02:09.374Z,102092.78
2023-12-17T14:07:33.257Z,102086.59
2023-12-17T14:12:56.451Z,102097.27
2023-12-17T14:18:19.752Z,102098.06
2023-12-17T14:23:42.511Z,102064.94
2023-12-17T14:29:04.929Z,102082.92
2023-12-17T14:34:27.375Z,102088.36
2023-12-17T14:39:50.192Z,102084.73
2023-12-17T14:45:12.875Z,102083.98
2023-12-17T14:50:35.466Z,102084.94
2023-12-17T14:55:57.873Z,102094.95
2023-12-17T15:01:25.242Z,102085.96
2023-12-17T15:06:44.462Z,102085.25
2023-12-17T15:12:08.441Z,102073.63
2023-12-17T15:17:34.176Z,102085.38
2023-12-17T15:22:56.951Z,102078.28
2023-12-17T15:28:19.392Z,102097.83
2023-12-17T15:33:42.127Z,102074.80
2023-12-17T15:39:05.205Z,102082.06
2023-12-17T15:44:27.627Z,102078.51
2023-12-17T15:49:50.314Z,102074.09
2023-12-17T15:55:12.929Z,102068.94
2023-12-17T16:00:35.924Z,102071.77
2023-12-17T16:05:58.824Z,102092.34
2023-12-17T16:11:21.618Z,102063.93
2023-12-17T16:16:47.381Z,102038.20
2023-12-17T16:22:30.274Z,102042.81
2023-12-17T16:27:56.567Z,102075.20
2023-12-17T16:33:19.682Z,102077.95
2023-12-17T16:38:42.291Z,102069.84
2023-12-17T16:44:05.252Z,102023.62
2023-12-17T16:49:27.650Z,102050.48
2023-12-17T16:54:50.807Z,102041.50
2023-12-17T17:00:14.037Z,102032.75
2023-12-17T17:05:36.405Z,102036.53
2023-12-17T17:11:07.651Z,102022.31
2023-12-17T17:16:27.731Z,102026.80
2023-12-17T17:21:52.588Z,102010.80
2023-12-17T17:27:33.661Z,102018.99
2023-12-17T17:32:56.571Z,102021.00
2023-12-17T17:38:19.437Z,102015.00
2023-12-17T17:43:42.557Z,102042.73
2023-12-17T17:49:05.320Z,102007.31
2023-12-17T17:54:28.128Z,102001.36
2023-12-17T17:59:51.965Z,102015.92
2023-12-17T18:05:15.298Z,102017.80
2023-12-17T18:10:37.731Z,102014.45
2023-12-17T18:16:00.538Z,102007.51
2023-12-17T18:21:24.398Z,102006.64
2023-12-17T18:26:47.879Z,102009.50
2023-12-17T18:32:10.908Z,102004.30
2023-12-17T18:37:33.630Z,101992.91
2023-12-17T18:42:58.186Z,101987.86
2023-12-17T18:48:21.224Z,101976.47
2023-12-17T18:53:45.243Z,101979.36
2023-12-17T18:59:07.889Z,101983.09
2023-12-17T19:04:30.912Z,101974.45
2023-12-17T19:09:54.807Z,101979.08
2023-12-17T19:15:18.142Z,101950.86
2023-12-17T19:20:44.029Z,101943.23
2023-12-17T19:26:07.197Z,101932.06
2023-12-17T19:31:33.432Z,101939.58
2023-12-17T19:36:56.291Z,101966.63
2023-12-17T19:42:20.236Z,101957.98
2023-12-17T19:47:44.321Z,101941.22
2023-12-17T19:53:07.315Z,101952.08
2023-12-17T19:58:29.957Z,101961.98
2023-12-17T20:03:54.095Z,101948.82
2023-12-17T20:09:17.223Z,101972.10
2023-12-17T20:14:41.048Z,101951.80
2023-12-17T20:20:04.808Z,101947.39
2023-12-17T20:25:28.068Z,101957.22
2023-12-17T20:30:52.236Z,101937.88
2023-12-17T20:36:17.982Z,101937.15
2023-12-17T20:41:41.182Z,101927.50
2023-12-17T20:47:03.688Z,101924.97
2023-12-17T20:52:26.292Z,101908.14
2023-12-17T20:57:48.787Z,101892.36
2023-12-17T21:03:11.578Z,101888.95
2023-12-17T21:08:34.406Z,101885.52
2023-12-17T21:13:56.961Z,101890.99
2023-12-17T21:19:20.490Z,101904.41
2023-12-17T21:24:44.204Z,101895.53
2023-12-17T21:30:08.180Z,101896.47
2023-12-17T21:35:32.775Z,101903.55
2023-12-17T21:40:55.942Z,101894.59
2023-12-17T21:46:18.763Z,101891.93
2023-12-17T21:51:42.298Z,101890.92
2023-12-17T21:57:17.709Z,101896.89
2023-12-17T22:02:33.557Z,101888.68
2023-12-17T22:07:56.434Z,101898.42
2023-12-17T22:13:19.611Z,101889.31
2023-12-17T22:18:42.885Z,101888.20
2023-12-17T22:24:06.033Z,101891.39
2023-12-17T22:29:28.578Z,101891.08
2023-12-17T22:34:51.494Z,101900.58
2023-12-17T22:40:14.932Z,101883.39
2023-12-17T22:45:38.329Z,101870.94
2023-12-17T22:51:00.764Z,101873.47
2023-12-17T22:56:23.329Z,101872.59
2023-12-17T23:01:46.320Z,101853.96
2023-12-17T23:07:08.809Z,101884.30
2023-12-17T23:12:31.654Z,101845.25
2023-12-17T23:17:54.059Z,101840.92
2023-12-17T23:23:16.570Z,101833.84
2023-12-17T23:28:38.955Z,101842.80
2023-12-17T23:34:01.491Z,101832.91
2023-12-17T23:39:24.410Z,101839.12
2023-12-17T23:44:46.755Z,101817.73
2023-12-17T23:50:09.425Z,101835.51
2023-12-17T23:55:31.878Z,101822.14
